Aérodrome :
LOGIN :

S'inscrire | Disclaimer

   EN    FR    IT 

 










Légende :    VFR   VFR Marginal   IFR   IFR Intensif   IFR Très Intensif
Visi : 
Plafond : 
>= 8 km
>= 3000ft
5 à 8 km
1000 à 3000 ft
1500m à 5 km
500 à 1000 ft
800 à 1500m
200 à 500 ft
< 800m
< 200 ft
Symboles :   Orages  Brouillard  Fortes neiges  Fortes précipitations  Vent > 20 kt
SIGMETs :   Divers  Orages  Givrage  Turbulence  Onde Orograph.  Cendres Volcan.







- Altitude de l'aérodrome : 1197 ft
- Code IATA : SPM


ETAD - Spangdahlem Ab

DERNIER METAR :
  • 161511Z AUTO 24018G24KT 9999 SCT030 BKN037 05/01 A2941 RMK AO2 SLP960 TSNO $

METARs EXPIRÉS :
  • 161456Z AUTO 24014G24KT 9999 FEW047 05/00 A2941 RMK AO2 PK WND 23026/19 DZB1359E06 SLP960 P0000 60000 T00490001 55001 TSNO $
  • 161406Z AUTO 24018G24KT 9999 BKN031 06/01 A2941 RMK AO2 DZB1359E06 SLP960 TSNO $
  • 161356Z AUTO 25015G24KT 9999 SCT033 07/01 A2941 RMK AO2 PK WND 25029/1256 SLP958 T00700009 TSNO $
  • 161311Z AUTO 25018G25KT 9999 SCT033 BKN110 BKN190 06/01 A2941 RMK AO2 SLP958 TSNO $
  • 161256Z AUTO 25022G28KT 9999 SCT030 BKN037 06/01 A2941 RMK AO2 PK WND 25028/53 SLP958 T00550005 TSNO $
  • 161241Z AUTO 25017G23KT 9999 FEW028 BKN037 BKN130 05/01 A2941 RMK AO2 SLP960 TSNO $

TAF TAF ETAD
Valide du 16 à 11h jusqu'au 17 à 17h UTC


161118Z 1611/1717 24015G25KT 9999 FEW015 SCT025 510003 QNH2935INS
TEMPO 1611/1614 26025G35KT 520003
BECMG 1613/1614 26015G25KT 9999 SCT020 BKN035 610408 510003 QNH2943INS
BECMG 1618/1619 26015G25KT 8000 -SHRA SCT010 BKN012 610209 621101 510003 QNH2944INS
BECMG 1623/1624 26015G25KT 3200 -SHRASN SCT012 BKN030 610307 510003 QNH2950INS
BECMG 1709/1710 26025G35KT 9999 NSW SCT020 BKN035 610406 520003 QNH2955INS TX06/1611Z TN00/1700Z
Pas de NOTAMs connus pour ce terrain.
1 SIGMET publié pour la FIR Langen (EDGG) :
 
Turbulence forte
EDGG SIGMET 7 VALID 161400/161600 EDZF
EDGG LANGEN FIR SEV TURB FCST S OF N4900 SFC/FL060 STNR WKN=



MET'MAP, la Météo Aéronautique d'un coup d'oeil ! - Copyright ORBIFLY Décembre 2007 - Disclaimer

ORBIFLY MET'MAP TEAM :

Programmation & Développement : Alexandra Zaïnal
Conception & Développement : Baudouin d'Aumeries
Co-Programmation & Développement : Marc-Olivier Méhu
Soutien technique & logistique : Manuel Goepfert

Contact : metmap@orbifly.com




SOURCES & CREDITS :

   NOAA